createdAt,value
2017-10-10T00:01:28.589Z,75.98
2017-10-10T00:03:56.065Z,76.08
2017-10-10T00:06:23.558Z,76.31
2017-10-10T00:08:51.078Z,76.88
2017-10-10T00:11:18.533Z,77.00
2017-10-10T00:13:46.031Z,77.06
2017-10-10T00:16:13.486Z,76.95
2017-10-10T00:18:40.972Z,76.80
2017-10-10T00:21:08.434Z,76.80
2017-10-10T00:23:35.926Z,76.81
2017-10-10T00:26:03.385Z,77.12
2017-10-10T00:28:30.869Z,77.22
2017-10-10T00:30:58.321Z,77.21
2017-10-10T00:33:25.809Z,77.25
2017-10-10T00:35:53.285Z,77.43
2017-10-10T00:38:20.742Z,77.47
2017-10-10T00:40:48.229Z,77.21
2017-10-10T00:43:15.710Z,76.92
2017-10-10T00:45:43.164Z,77.11
2017-10-10T00:48:10.657Z,77.39
2017-10-10T00:50:38.130Z,77.69
2017-10-10T00:53:05.604Z,77.72
2017-10-10T00:55:33.101Z,77.53
2017-10-10T00:58:00.553Z,77.25
2017-10-10T01:00:28.027Z,77.19
2017-10-10T01:02:55.491Z,77.35
2017-10-10T01:05:22.978Z,77.40
2017-10-10T01:07:50.475Z,77.67
2017-10-10T01:10:17.913Z,78.02
2017-10-10T01:12:45.394Z,77.83
2017-10-10T01:15:12.845Z,77.71
2017-10-10T01:17:40.346Z,77.62
2017-10-10T01:20:07.801Z,77.76
2017-10-10T01:22:35.279Z,77.92
2017-10-10T01:25:02.729Z,78.04
2017-10-10T01:27:30.209Z,78.13
2017-10-10T01:29:57.702Z,78.02
2017-10-10T01:32:25.163Z,77.97
2017-10-10T01:34:53.149Z,77.75
2017-10-10T01:37:20.628Z,77.44
2017-10-10T01:39:48.089Z,77.46
2017-10-10T01:42:15.590Z,77.58
2017-10-10T01:44:43.075Z,77.56
2017-10-10T01:47:10.533Z,77.69
2017-10-10T01:49:38.025Z,77.72
2017-10-10T01:52:05.505Z,77.82
2017-10-10T01:54:32.993Z,77.88
2017-10-10T01:57:00.446Z,77.96
2017-10-10T01:59:27.949Z,77.87
2017-10-10T02:01:55.427Z,77.82
2017-10-10T02:04:22.913Z,77.97
2017-10-10T02:06:50.370Z,78.08
2017-10-10T02:09:17.857Z,78.03
2017-10-10T02:11:46.120Z,78.03
2017-10-10T02:14:13.605Z,78.05
2017-10-10T02:16:41.050Z,78.18
2017-10-10T02:19:08.509Z,78.30
2017-10-10T02:21:35.985Z,78.35
2017-10-10T02:24:03.440Z,78.04
2017-10-10T02:26:31.258Z,77.81
2017-10-10T02:28:58.713Z,77.84
2017-10-10T02:31:26.169Z,77.82
2017-10-10T02:33:53.655Z,77.74
2017-10-10T02:36:21.121Z,77.48
2017-10-10T02:38:48.590Z,77.06
2017-10-10T02:41:16.053Z,76.98
2017-10-10T02:43:43.548Z,76.96
2017-10-10T02:46:11.022Z,77.00
2017-10-10T02:48:38.509Z,76.83
2017-10-10T02:51:05.972Z,77.01
2017-10-10T02:53:33.481Z,77.18
2017-10-10T02:56:00.982Z,77.51
2017-10-10T02:58:28.468Z,77.52
2017-10-10T03:00:55.925Z,77.42
2017-10-10T03:03:23.418Z,77.15
2017-10-10T03:05:50.881Z,77.20
2017-10-10T03:08:18.364Z,77.41
2017-10-10T03:10:45.815Z,77.50
2017-10-10T03:13:13.264Z,77.41
2017-10-10T03:15:40.739Z,77.22
2017-10-10T03:18:08.247Z,77.26
2017-10-10T03:20:35.728Z,77.28
2017-10-10T03:23:03.190Z,77.21
2017-10-10T03:25:30.678Z,77.19
2017-10-10T03:27:58.136Z,77.25
2017-10-10T03:30:25.636Z,77.17
2017-10-10T03:32:53.092Z,76.95
2017-10-10T03:35:20.580Z,77.23
2017-10-10T03:37:48.062Z,77.50
2017-10-10T03:40:15.563Z,77.49
2017-10-10T03:42:43.027Z,77.28
2017-10-10T03:45:10.485Z,77.25
2017-10-10T03:47:37.961Z,77.69
2017-10-10T03:50:05.417Z,77.50
2017-10-10T03:52:32.892Z,77.35
2017-10-10T03:55:00.353Z,77.50
2017-10-10T03:57:27.840Z,77.24
2017-10-10T03:59:55.328Z,77.18
2017-10-10T04:02:22.815Z,77.15
2017-10-10T04:04:50.267Z,77.26
2017-10-10T04:07:17.776Z,77.52
2017-10-10T04:09:45.251Z,77.56
2017-10-10T04:12:12.745Z,77.63
2017-10-10T04:14:40.192Z,77.66
2017-10-10T04:17:07.652Z,77.83
2017-10-10T04:19:35.133Z,78.08
2017-10-10T04:22:02.604Z,77.99
2017-10-10T04:24:30.097Z,78.16
2017-10-10T04:26:57.561Z,78.02
2017-10-10T04:29:25.046Z,77.85
2017-10-10T04:31:52.518Z,77.80
2017-10-10T04:34:20.042Z,77.46
2017-10-10T04:36:47.549Z,77.39
2017-10-10T04:39:15.021Z,77.56
2017-10-10T04:41:42.475Z,77.51
2017-10-10T04:44:09.961Z,77.33
2017-10-10T04:46:37.413Z,77.45
2017-10-10T04:49:04.877Z,77.39
2017-10-10T04:51:32.357Z,77.07
2017-10-10T04:53:59.817Z,77.15
2017-10-10T04:56:27.303Z,77.09
2017-10-10T04:58:54.758Z,77.24
2017-10-10T05:01:22.258Z,77.13
2017-10-10T05:03:49.712Z,77.09
2017-10-10T05:06:17.201Z,77.00
2017-10-10T05:08:44.653Z,76.94
2017-10-10T05:11:12.243Z,76.78
2017-10-10T05:13:39.706Z,76.84
2017-10-10T05:16:07.161Z,77.04
2017-10-10T05:18:34.658Z,77.36
2017-10-10T05:21:02.120Z,77.13
2017-10-10T05:23:29.606Z,77.36
2017-10-10T05:25:57.075Z,77.41
2017-10-10T05:28:24.523Z,77.28
2017-10-10T05:30:52.017Z,76.94
2017-10-10T05:33:19.473Z,76.98
2017-10-10T05:35:46.976Z,76.69
2017-10-10T05:38:14.434Z,76.67
2017-10-10T05:40:41.921Z,76.37
2017-10-10T05:43:09.385Z,75.97
2017-10-10T05:45:36.889Z,75.98
2017-10-10T05:48:04.381Z,75.96
2017-10-10T05:50:31.865Z,76.35
2017-10-10T05:52:59.354Z,76.10
2017-10-10T05:55:26.809Z,75.84
2017-10-10T05:57:54.328Z,75.91
2017-10-10T06:00:21.802Z,75.91
2017-10-10T06:02:49.285Z,75.96
2017-10-10T06:05:16.752Z,75.99
2017-10-10T06:07:44.232Z,76.60
2017-10-10T06:10:11.685Z,76.81
2017-10-10T06:12:39.166Z,77.10
2017-10-10T06:15:06.641Z,77.16
2017-10-10T06:17:34.106Z,77.00
2017-10-10T06:20:01.604Z,77.37
2017-10-10T06:22:29.053Z,77.41
2017-10-10T06:24:56.530Z,77.14
2017-10-10T06:27:23.996Z,77.13
2017-10-10T06:29:51.469Z,77.40
2017-10-10T06:32:18.925Z,77.39
2017-10-10T06:34:46.409Z,77.87
2017-10-10T06:37:13.869Z,78.11
2017-10-10T06:39:41.397Z,78.09
2017-10-10T06:42:08.861Z,78.22
2017-10-10T06:44:36.777Z,78.23
2017-10-10T06:47:04.289Z,78.16
2017-10-10T06:49:31.751Z,77.87
2017-10-10T06:51:59.269Z,78.02
2017-10-10T06:54:26.737Z,77.96
2017-10-10T06:56:54.217Z,78.24
2017-10-10T06:59:21.676Z,77.96
2017-10-10T07:01:49.168Z,77.94
2017-10-10T07:04:16.630Z,78.06
2017-10-10T07:06:44.214Z,78.07
2017-10-10T07:09:11.670Z,78.41
2017-10-10T07:11:39.164Z,78.57
2017-10-10T07:14:06.619Z,79.15
2017-10-10T07:16:34.082Z,79.44
2017-10-10T07:19:01.573Z,79.74
2017-10-10T07:21:29.028Z,79.65
2017-10-10T07:23:56.516Z,79.27
2017-10-10T07:26:23.986Z,79.07
2017-10-10T07:28:51.478Z,79.33
2017-10-10T07:31:18.939Z,79.36
2017-10-10T07:33:48.151Z,79.48
2017-10-10T07:36:15.602Z,79.36
2017-10-10T07:38:44.156Z,79.23
2017-10-10T07:41:11.633Z,79.55
2017-10-10T07:43:40.630Z,79.74
2017-10-10T07:46:08.112Z,79.86
2017-10-10T07:48:35.580Z,79.76
2017-10-10T07:51:03.072Z,79.68
2017-10-10T07:53:30.546Z,79.69
2017-10-10T07:55:58.048Z,80.08
2017-10-10T07:58:25.526Z,79.91
2017-10-10T08:00:53.023Z,80.09
2017-10-10T08:03:20.513Z,80.11
2017-10-10T08:05:47.996Z,80.07
2017-10-10T08:08:15.463Z,80.23
2017-10-10T08:10:42.958Z,80.04
2017-10-10T08:13:10.438Z,79.71
2017-10-10T08:15:37.897Z,79.82
2017-10-10T08:18:05.377Z,80.16
2017-10-10T08:20:32.835Z,80.42
2017-10-10T08:23:00.690Z,80.61
2017-10-10T08:25:28.159Z,80.69
2017-10-10T08:27:55.728Z,80.71
2017-10-10T08:30:23.185Z,80.67
2017-10-10T08:32:50.669Z,80.70
2017-10-10T08:35:18.125Z,80.61
2017-10-10T08:37:45.627Z,80.78
2017-10-10T08:40:13.102Z,80.96
2017-10-10T08:42:40.659Z,80.83
2017-10-10T08:45:08.160Z,80.68
2017-10-10T08:47:35.609Z,80.43
2017-10-10T08:50:03.096Z,80.32
2017-10-10T08:52:30.548Z,81.04
2017-10-10T08:54:58.029Z,81.63
2017-10-10T08:57:25.485Z,81.65
2017-10-10T08:59:52.971Z,81.80
2017-10-10T09:02:20.428Z,81.99
2017-10-10T09:04:47.966Z,81.99
2017-10-10T09:07:15.474Z,81.96
2017-10-10T09:09:42.932Z,81.99
2017-10-10T09:12:10.426Z,82.19
2017-10-10T09:14:37.907Z,82.34
2017-10-10T09:17:05.406Z,82.12
2017-10-10T09:19:32.857Z,82.27
2017-10-10T09:22:00.359Z,82.33
2017-10-10T09:24:27.844Z,82.36
2017-10-10T09:26:55.317Z,82.29
2017-10-10T09:29:22.830Z,82.24
2017-10-10T09:31:50.351Z,82.22
2017-10-10T09:34:17.821Z,81.70
2017-10-10T09:36:45.282Z,81.59
2017-10-10T09:39:12.759Z,81.12
2017-10-10T09:41:40.262Z,80.88
2017-10-10T09:44:07.830Z,80.38
2017-10-10T09:46:35.277Z,79.98
2017-10-10T09:49:02.777Z,79.47
2017-10-10T09:51:30.245Z,79.21
2017-10-10T09:53:57.728Z,79.36
2017-10-10T09:56:26.089Z,79.41
2017-10-10T09:58:53.580Z,79.09
2017-10-10T10:01:21.063Z,79.47
2017-10-10T10:03:48.556Z,80.14
2017-10-10T10:06:17.038Z,80.25
2017-10-10T10:08:44.502Z,80.51
2017-10-10T10:11:12.003Z,80.58
2017-10-10T10:13:39.456Z,80.76
2017-10-10T10:16:06.945Z,81.20
2017-10-10T10:18:34.401Z,81.14
2017-10-10T10:21:01.891Z,81.40
2017-10-10T10:23:29.349Z,81.72
2017-10-10T10:25:56.878Z,81.31
2017-10-10T10:28:24.337Z,81.55
2017-10-10T10:30:51.817Z,81.55
2017-10-10T10:33:19.277Z,81.26
2017-10-10T10:35:46.747Z,81.13
2017-10-10T10:38:14.239Z,80.87
2017-10-10T10:40:41.705Z,80.75
2017-10-10T10:43:09.181Z,80.61
2017-10-10T10:45:36.632Z,80.43
2017-10-10T10:48:04.110Z,80.61
2017-10-10T10:50:31.566Z,80.79
2017-10-10T10:52:59.066Z,80.95
2017-10-10T10:55:26.552Z,80.54
2017-10-10T10:57:54.063Z,80.58
2017-10-10T11:00:21.500Z,80.94
2017-10-10T11:02:48.984Z,81.29
2017-10-10T11:05:16.489Z,81.71
2017-10-10T11:07:43.950Z,82.00
2017-10-10T11:10:11.430Z,82.03
2017-10-10T11:12:38.888Z,82.49
2017-10-10T11:15:06.377Z,82.89
2017-10-10T11:17:33.833Z,82.14
2017-10-10T11:20:01.333Z,81.91
2017-10-10T11:22:28.785Z,82.19
2017-10-10T11:24:56.277Z,82.24
2017-10-10T11:27:23.731Z,82.21
2017-10-10T11:29:51.218Z,82.58
2017-10-10T11:32:18.692Z,82.97
2017-10-10T11:34:46.168Z,82.84
2017-10-10T11:37:13.642Z,82.25
2017-10-10T11:39:41.133Z,82.27
2017-10-10T11:42:08.635Z,82.31
2017-10-10T11:44:36.102Z,82.09
2017-10-10T11:47:03.574Z,81.41
2017-10-10T11:49:31.027Z,81.12
2017-10-10T11:51:58.505Z,80.62
2017-10-10T11:54:25.956Z,80.30
2017-10-10T11:56:53.414Z,80.02
2017-10-10T11:59:20.944Z,79.48
2017-10-10T12:01:48.410Z,79.08
2017-10-10T12:04:15.889Z,78.34
2017-10-10T12:06:43.953Z,78.07
2017-10-10T12:09:11.423Z,77.88
2017-10-10T12:11:38.879Z,77.02
2017-10-10T12:14:06.409Z,76.20
2017-10-10T12:16:33.916Z,76.09
2017-10-10T12:19:01.399Z,76.17
2017-10-10T12:21:28.856Z,76.18
2017-10-10T12:23:56.373Z,75.16
2017-10-10T12:26:24.668Z,74.66
2017-10-10T12:28:52.152Z,74.23
2017-10-10T12:31:19.622Z,74.81
2017-10-10T12:33:47.173Z,75.12
2017-10-10T12:36:14.632Z,75.33
2017-10-10T12:38:42.305Z,75.39
2017-10-10T12:41:09.789Z,75.96
2017-10-10T12:43:37.266Z,75.97
2017-10-10T12:46:04.751Z,75.89
2017-10-10T12:48:32.221Z,75.47
2017-10-10T12:50:59.706Z,74.78
2017-10-10T12:53:27.215Z,73.67
2017-10-10T12:55:54.715Z,73.38
2017-10-10T12:58:22.189Z,72.97
2017-10-10T13:00:49.692Z,73.17
2017-10-10T13:03:17.223Z,73.75
2017-10-10T13:05:44.678Z,73.68
2017-10-10T13:08:12.199Z,74.09
2017-10-10T13:10:39.813Z,74.40
2017-10-10T13:13:07.300Z,74.45
2017-10-10T13:15:34.761Z,74.54
2017-10-10T13:18:02.392Z,75.00
2017-10-10T13:20:29.856Z,74.83
2017-10-10T13:22:58.354Z,74.97
2017-10-10T13:25:25.798Z,74.84
2017-10-10T13:27:53.301Z,75.01
2017-10-10T13:30:20.794Z,75.28
2017-10-10T13:32:48.257Z,75.43
2017-10-10T13:35:15.763Z,75.58
2017-10-10T13:37:43.213Z,75.75
2017-10-10T13:40:10.702Z,75.51
2017-10-10T13:42:38.187Z,75.48
2017-10-10T13:45:05.750Z,75.66
2017-10-10T13:47:33.199Z,75.85
2017-10-10T13:50:00.728Z,75.87
2017-10-10T13:52:28.228Z,75.77
2017-10-10T13:54:55.757Z,75.27
2017-10-10T13:57:23.243Z,75.20
2017-10-10T13:59:50.728Z,74.88
2017-10-10T14:02:18.221Z,74.74
2017-10-10T14:04:45.690Z,74.79
2017-10-10T14:07:13.177Z,74.64
2017-10-10T14:09:40.654Z,74.99
2017-10-10T14:12:08.166Z,75.15
2017-10-10T14:14:46.313Z,75.11
2017-10-10T14:17:15.314Z,75.31
2017-10-10T14:19:42.795Z,74.98
2017-10-10T14:22:10.270Z,75.14
2017-10-10T14:24:37.791Z,75.18
2017-10-10T14:27:05.312Z,75.39
2017-10-10T14:29:32.803Z,75.44
2017-10-10T14:32:00.249Z,75.21
2017-10-10T14:34:27.806Z,75.09
2017-10-10T14:36:55.364Z,75.10
2017-10-10T14:39:22.833Z,74.83
2017-10-10T14:41:50.291Z,74.91
2017-10-10T14:44:17.784Z,75.05
2017-10-10T14:46:45.352Z,75.15
2017-10-10T14:49:12.915Z,75.43
2017-10-10T14:51:40.395Z,75.49
2017-10-10T14:54:07.918Z,75.66
2017-10-10T14:56:35.441Z,75.96
2017-10-10T14:59:02.894Z,76.05
2017-10-10T15:01:30.556Z,75.98
2017-10-10T15:03:58.156Z,75.91
2017-10-10T15:06:25.683Z,75.95
2017-10-10T15:08:53.185Z,75.87
2017-10-10T15:11:20.678Z,76.13
2017-10-10T15:13:48.167Z,76.39
2017-10-10T15:16:15.643Z,76.07
2017-10-10T15:18:43.138Z,76.26
2017-10-10T15:21:10.589Z,76.41
2017-10-10T15:23:38.857Z,76.51
2017-10-10T15:26:06.329Z,76.49
2017-10-10T15:28:33.810Z,76.15
2017-10-10T15:31:01.309Z,76.10
2017-10-10T15:33:28.794Z,75.98
2017-10-10T15:38:17.375Z,75.91
2017-10-10T15:40:44.866Z,75.70
2017-10-10T15:43:12.382Z,75.41
2017-10-10T15:45:39.854Z,75.37
2017-10-10T15:48:07.333Z,75.42
2017-10-10T15:50:34.815Z,75.59
2017-10-10T15:53:02.323Z,75.59
2017-10-10T15:55:29.810Z,75.89
2017-10-10T15:57:57.271Z,75.98
2017-10-10T16:00:24.749Z,75.94
2017-10-10T16:02:52.202Z,75.80
2017-10-10T16:05:19.742Z,75.85
2017-10-10T16:07:47.202Z,76.04
2017-10-10T16:10:14.718Z,76.28
2017-10-10T16:12:42.202Z,76.71
2017-10-10T16:15:09.689Z,76.77
2017-10-10T16:17:37.142Z,76.92
2017-10-10T16:20:04.615Z,77.05
2017-10-10T16:22:32.113Z,77.09
2017-10-10T16:24:59.629Z,77.41
2017-10-10T16:27:27.106Z,77.46
2017-10-10T16:29:54.588Z,77.49
2017-10-10T16:32:22.060Z,77.56
2017-10-10T16:34:49.517Z,77.51
2017-10-10T16:37:17.006Z,77.64
2017-10-10T16:39:44.478Z,77.96
2017-10-10T16:42:11.972Z,78.21
2017-10-10T16:44:39.425Z,78.22
2017-10-10T16:47:06.917Z,78.30
2017-10-10T16:49:34.397Z,78.48
2017-10-10T16:52:01.863Z,78.44
2017-10-10T16:54:29.349Z,78.62
2017-10-10T16:56:56.884Z,78.66
2017-10-10T16:59:25.353Z,78.59
2017-10-10T17:01:52.815Z,78.70
2017-10-10T17:04:20.312Z,78.94
2017-10-10T17:06:47.811Z,78.96
2017-10-10T17:09:15.298Z,79.02
2017-10-10T17:11:42.769Z,79.11
2017-10-10T17:14:10.270Z,79.08
2017-10-10T17:16:37.729Z,79.32
2017-10-10T17:19:05.225Z,79.54
2017-10-10T17:21:32.704Z,79.67
2017-10-10T17:24:00.226Z,79.60
2017-10-10T17:26:27.726Z,79.52
2017-10-10T17:28:55.189Z,79.29
2017-10-10T17:31:22.675Z,79.12
2017-10-10T17:33:50.113Z,79.07
2017-10-10T17:36:17.608Z,79.11
2017-10-10T17:38:45.062Z,79.17
2017-10-10T17:41:12.573Z,79.36
2017-10-10T17:43:40.047Z,79.41
2017-10-10T17:46:07.544Z,79.74
2017-10-10T17:48:35.027Z,80.10
2017-10-10T17:51:02.523Z,80.03
2017-10-10T17:53:40.759Z,80.08
2017-10-10T17:56:08.394Z,80.03
2017-10-10T17:58:35.897Z,80.06
2017-10-10T18:01:03.429Z,80.05
2017-10-10T18:03:30.994Z,80.06
2017-10-10T18:05:58.498Z,80.37
2017-10-10T18:08:26.080Z,80.62
2017-10-10T18:10:53.542Z,80.57
2017-10-10T18:13:20.997Z,80.44
2017-10-10T18:15:48.519Z,80.48
2017-10-10T18:18:15.993Z,80.49
2017-10-10T18:20:43.693Z,80.62
2017-10-10T18:23:11.171Z,80.59
2017-10-10T18:25:38.689Z,80.39
2017-10-10T18:28:06.427Z,80.41
2017-10-10T18:30:33.916Z,80.48
2017-10-10T18:33:01.407Z,80.44
2017-10-10T18:35:28.888Z,80.37
2017-10-10T18:37:56.378Z,80.38
2017-10-10T18:40:23.853Z,80.46
2017-10-10T18:42:51.338Z,80.39
2017-10-10T18:45:18.899Z,80.24
2017-10-10T18:47:46.415Z,80.07
2017-10-10T18:50:13.886Z,80.00
2017-10-10T18:52:41.536Z,79.93
2017-10-10T18:55:09.055Z,79.80
2017-10-10T18:57:36.503Z,79.79
2017-10-10T19:00:04.016Z,79.74
2017-10-10T19:02:31.494Z,79.71
2017-10-10T19:04:58.998Z,79.71
2017-10-10T19:07:26.509Z,79.67
2017-10-10T19:09:54.040Z,79.71
2017-10-10T19:12:21.603Z,79.86
2017-10-10T19:14:49.093Z,80.04
2017-10-10T19:17:17.761Z,80.14
2017-10-10T19:19:45.273Z,80.21
2017-10-10T19:22:12.767Z,80.28
2017-10-10T19:24:40.258Z,80.32
2017-10-10T19:27:07.800Z,80.25
2017-10-10T19:29:35.314Z,80.22
2017-10-10T19:32:03.268Z,80.24
2017-10-10T19:34:30.787Z,80.21
2017-10-10T19:36:58.927Z,80.41
2017-10-10T19:39:26.753Z,80.42
2017-10-10T19:41:54.610Z,80.45
2017-10-10T19:44:22.142Z,80.54
2017-10-10T19:46:49.708Z,80.50
2017-10-10T19:49:17.222Z,80.67
2017-10-10T19:51:44.698Z,80.52
2017-10-10T19:54:12.214Z,80.41
2017-10-10T19:56:39.689Z,80.21
2017-10-10T19:59:07.234Z,80.15
2017-10-10T20:01:34.701Z,80.02
2017-10-10T20:04:02.207Z,79.96
2017-10-10T20:06:29.710Z,79.82
2017-10-10T20:08:57.274Z,79.89
2017-10-10T20:11:24.751Z,79.81
2017-10-10T20:13:52.283Z,79.76
2017-10-10T20:16:19.781Z,79.97
2017-10-10T20:18:47.307Z,80.00
2017-10-10T20:21:14.904Z,79.92
2017-10-10T20:23:43.461Z,79.80
2017-10-10T20:26:11.036Z,79.81
2017-10-10T20:28:38.519Z,79.78
2017-10-10T20:31:07.106Z,79.74
2017-10-10T20:33:34.565Z,80.13
2017-10-10T20:36:02.047Z,80.19
2017-10-10T20:38:29.595Z,80.07
2017-10-10T20:40:57.134Z,80.07
2017-10-10T20:43:24.651Z,79.86
2017-10-10T20:45:52.854Z,79.57
2017-10-10T20:48:20.350Z,79.40
2017-10-10T20:50:47.829Z,79.35
2017-10-10T20:53:15.327Z,79.35
2017-10-10T20:55:42.896Z,79.28
2017-10-10T20:58:11.312Z,79.29
2017-10-10T21:00:38.761Z,79.10
2017-10-10T21:03:06.630Z,78.99
2017-10-10T21:05:34.106Z,79.16
2017-10-10T21:08:01.569Z,79.11
2017-10-10T21:10:30.064Z,79.05
2017-10-10T21:12:57.583Z,79.21
2017-10-10T21:15:25.085Z,79.37
2017-10-10T21:17:52.555Z,79.38
2017-10-10T21:20:20.066Z,79.17
2017-10-10T21:22:47.532Z,79.36
2017-10-10T21:25:15.013Z,79.30
2017-10-10T21:27:42.493Z,79.17
2017-10-10T21:30:10.037Z,79.03
2017-10-10T21:32:37.566Z,78.86
2017-10-10T21:35:05.030Z,78.97
2017-10-10T21:37:32.535Z,78.99
2017-10-10T21:40:00.021Z,79.02
2017-10-10T21:42:27.513Z,79.02
2017-10-10T21:44:54.974Z,78.98
2017-10-10T21:47:22.469Z,78.91
2017-10-10T21:49:49.953Z,78.87
2017-10-10T21:52:21.961Z,79.08
2017-10-10T21:54:49.419Z,79.06
2017-10-10T21:57:16.919Z,78.97
2017-10-10T21:59:44.428Z,78.94
2017-10-10T22:02:11.899Z,78.89
2017-10-10T22:04:39.409Z,79.14
2017-10-10T22:07:06.859Z,79.54
2017-10-10T22:09:34.379Z,79.60
2017-10-10T22:12:01.881Z,79.79
2017-10-10T22:14:29.370Z,79.83
2017-10-10T22:16:56.859Z,79.73
2017-10-10T22:19:24.371Z,79.75
2017-10-10T22:21:51.833Z,79.76
2017-10-10T22:24:19.314Z,79.99
2017-10-10T22:26:46.773Z,80.12
2017-10-10T22:29:14.287Z,80.12
2017-10-10T22:31:41.741Z,79.96
2017-10-10T22:34:09.193Z,79.99
2017-10-10T22:36:36.696Z,80.06
2017-10-10T22:39:04.215Z,80.20
2017-10-10T22:41:31.717Z,80.20
2017-10-10T22:43:59.164Z,80.03
2017-10-10T22:46:26.682Z,80.10
2017-10-10T22:48:54.190Z,80.14
2017-10-10T22:51:21.769Z,80.12
2017-10-10T22:53:49.289Z,80.30
2017-10-10T22:56:16.766Z,80.30
2017-10-10T22:58:44.273Z,80.46
2017-10-10T23:01:11.807Z,80.53
2017-10-10T23:03:39.298Z,80.56
2017-10-10T23:06:06.795Z,80.70
2017-10-10T23:08:34.289Z,80.65
2017-10-10T23:11:02.825Z,80.49
2017-10-10T23:13:30.310Z,80.78
2017-10-10T23:15:58.585Z,80.87
2017-10-10T23:18:26.118Z,80.96
2017-10-10T23:20:53.648Z,80.96
2017-10-10T23:23:21.162Z,81.07
2017-10-10T23:25:48.718Z,81.05
2017-10-10T23:28:16.213Z,80.96
2017-10-10T23:30:44.574Z,80.93
2017-10-10T23:33:12.037Z,80.98
2017-10-10T23:35:39.541Z,80.97
2017-10-10T23:38:07.083Z,81.05
2017-10-10T23:40:34.573Z,80.95
2017-10-10T23:43:02.028Z,80.80
2017-10-10T23:45:29.975Z,80.80
2017-10-10T23:47:57.456Z,80.84
2017-10-10T23:50:25.008Z,80.88
2017-10-10T23:52:52.498Z,81.14
2017-10-10T23:55:19.974Z,81.24
2017-10-10T23:57:47.444Z,81.21
